Time;durP1;ratioP1;P1;durP2;ratioP2;P2;SDS_P1;SDS_P2;PMS_P1;PMS_P2;Temp;Humidity;BMP_temperature;BMP_pressure;BME280_temperature;BME280_humidity;BME280_pressure;Samples;Min_cycle;Max_cycle;Signal;HPM_P1;HPM_P2
2021/08/10 00:00:26;;;;;;;7.35;6.65;;;19.50;99.90;;;;;;4207127;28;20028;-61
2021/08/10 00:02:27;;;;;;;12.02;7.68;;;19.60;99.90;;;;;;4206205;28;20024;-62
2021/08/10 00:04:28;;;;;;;6.90;6.30;;;19.50;99.90;;;;;;4206057;28;20044;-61
2021/08/10 00:06:29;;;;;;;8.02;6.93;;;19.50;99.90;;;;;;4207029;28;20793;-61
2021/08/10 00:08:30;;;;;;;10.15;7.60;;;19.50;99.90;;;;;;4206101;28;20093;-61
2021/08/10 00:10:31;;;;;;;11.05;7.00;;;19.50;99.90;;;;;;4207465;28;20032;-61
2021/08/10 00:12:33;;;;;;;11.98;6.63;;;19.50;99.90;;;;;;4205976;28;20462;-61
2021/08/10 00:14:34;;;;;;;8.90;6.50;;;19.50;99.90;;;;;;4207630;28;20089;-61
2021/08/10 00:16:35;;;;;;;8.77;7.10;;;19.40;99.90;;;;;;4205277;28;20369;-61
2021/08/10 00:18:36;;;;;;;9.07;6.80;;;19.40;99.90;;;;;;4206563;28;20454;-62
2021/08/10 00:20:37;;;;;;;9.00;7.47;;;19.30;99.90;;;;;;4205417;28;20032;-62
2021/08/10 00:22:39;;;;;;;12.07;7.30;;;19.30;99.90;;;;;;4207072;28;20032;-63
2021/08/10 00:24:40;;;;;;;8.48;6.70;;;19.30;99.90;;;;;;4205800;28;20161;-62
2021/08/10 00:26:41;;;;;;;7.85;7.05;;;19.30;99.90;;;;;;4206129;28;20101;-61
2021/08/10 00:28:42;;;;;;;8.55;7.25;;;19.30;99.90;;;;;;4205511;28;20086;-62
2021/08/10 00:30:44;;;;;;;9.07;7.55;;;19.30;99.90;;;;;;4206624;28;20113;-61
2021/08/10 00:32:46;;;;;;;9.93;7.28;;;19.30;99.90;;;;;;4206021;28;20509;-62
2021/08/10 00:34:47;;;;;;;8.95;7.03;;;19.30;99.90;;;;;;4206539;28;20028;-62
2021/08/10 00:36:48;;;;;;;9.40;7.65;;;19.30;99.90;;;;;;4206239;28;20472;-62
2021/08/10 00:38:50;;;;;;;14.98;7.18;;;19.30;99.90;;;;;;4206258;28;20036;-62
2021/08/10 00:40:53;;;;;;;9.35;7.07;;;19.30;99.90;;;;;;4206888;28;20166;-62
2021/08/10 00:42:55;;;;;;;10.48;6.70;;;19.30;99.90;;;;;;4207847;28;20024;-62
2021/08/10 00:44:56;;;;;;;8.98;6.45;;;19.30;99.90;;;;;;4210494;28;20048;-62
2021/08/10 00:46:58;;;;;;;7.47;6.55;;;19.30;99.90;;;;;;4208676;28;20101;-62
2021/08/10 00:48:59;;;;;;;8.82;6.63;;;19.30;99.90;;;;;;4210570;28;20032;-62
2021/08/10 00:51:00;;;;;;;7.00;6.30;;;19.20;99.90;;;;;;4208800;28;20057;-62
2021/08/10 00:53:02;;;;;;;9.55;7.20;;;19.20;99.90;;;;;;4210511;28;20040;-62
2021/08/10 00:55:04;;;;;;;6.97;6.25;;;19.20;99.90;;;;;;4209090;28;20081;-62
2021/08/10 00:57:05;;;;;;;9.63;6.22;;;19.20;99.90;;;;;;4211281;28;20028;-61
2021/08/10 00:59:06;;;;;;;7.63;6.28;;;19.20;99.90;;;;;;4208511;28;20093;-62
2021/08/10 01:01:08;;;;;;;7.47;6.70;;;19.20;99.90;;;;;;4209775;28;20040;-62
2021/08/10 01:03:10;;;;;;;7.60;6.57;;;19.20;99.90;;;;;;4209184;28;20024;-62
2021/08/10 01:05:12;;;;;;;6.60;6.03;;;19.10;99.90;;;;;;4209343;28;20052;-62
2021/08/10 01:07:16;;;;;;;7.15;6.43;;;19.10;99.90;;;;;;4209391;28;20082;-62
2021/08/10 01:09:40;;;;;;;7.60;6.15;;;19.10;99.90;;;;;;4208990;28;20128;-62
2021/08/10 01:11:47;;;;;;;11.90;6.75;;;19.10;99.90;;;;;;4208956;28;20039;-61
2021/08/10 01:14:00;;;;;;;6.90;6.07;;;19.10;99.90;;;;;;4209700;28;20263;-62
2021/08/10 01:16:10;;;;;;;9.35;5.75;;;19.10;99.90;;;;;;4209484;28;20141;-62
2021/08/10 01:18:26;;;;;;;8.80;5.80;;;19.00;99.90;;;;;;4207729;28;20102;-62
2021/08/10 01:21:04;;;;;;;7.30;6.18;;;19.00;99.90;;;;;;4208840;28;20101;-62
2021/08/10 01:23:09;;;;;;;11.13;6.32;;;19.10;99.90;;;;;;4209843;28;20032;-62
2021/08/10 01:25:43;;;;;;;10.45;6.38;;;19.00;99.90;;;;;;4208715;28;20341;-62
2021/08/10 01:28:25;;;;;;;6.45;5.65;;;19.00;99.90;;;;;;4209993;28;20585;-62
2021/08/10 01:30:49;;;;;;;8.02;5.78;;;19.00;99.90;;;;;;4208283;28;20389;-62
2021/08/10 01:32:51;;;;;;;10.02;5.72;;;19.00;99.90;;;;;;4209573;28;20036;-63
2021/08/10 01:34:54;;;;;;;10.13;5.75;;;19.00;99.90;;;;;;4208600;28;20428;-64
2021/08/10 01:36:59;;;;;;;6.85;5.78;;;19.00;99.90;;;;;;4209810;28;20082;-63
2021/08/10 01:39:01;;;;;;;8.80;5.32;;;19.00;99.90;;;;;;4208281;28;20070;-63
2021/08/10 01:41:03;;;;;;;13.05;6.00;;;19.00;99.90;;;;;;4209498;28;20519;-64
2021/08/10 01:43:06;;;;;;;7.25;5.47;;;19.00;99.90;;;;;;4207731;28;20114;-63
2021/08/10 01:45:09;;;;;;;7.28;6.00;;;18.90;99.90;;;;;;4209351;28;20832;-63
2021/08/10 01:47:12;;;;;;;8.48;5.70;;;18.90;99.90;;;;;;4208367;28;20032;-63
2021/08/10 01:49:15;;;;;;;7.10;6.00;;;18.90;99.90;;;;;;4209478;28;20442;-63
2021/08/10 01:51:16;;;;;;;6.00;5.38;;;18.80;99.90;;;;;;4208220;28;20071;-63
2021/08/10 01:53:18;;;;;;;7.28;6.10;;;18.80;99.90;;;;;;4208627;28;20093;-64
2021/08/10 01:55:20;;;;;;;7.25;5.53;;;18.80;99.90;;;;;;4208056;28;20031;-61
2021/08/10 01:57:24;;;;;;;10.07;5.45;;;18.70;99.90;;;;;;4209340;28;20100;-64
2021/08/10 01:59:26;;;;;;;10.25;6.00;;;18.70;99.90;;;;;;4208262;28;20016;-63
2021/08/10 02:01:29;;;;;;;8.27;6.03;;;18.70;99.90;;;;;;4208877;28;20476;-64
2021/08/10 02:03:31;;;;;;;12.15;5.72;;;18.60;99.90;;;;;;4207893;28;20172;-63
2021/08/10 02:05:34;;;;;;;11.50;6.80;;;18.70;99.90;;;;;;4208326;28;20032;-63
2021/08/10 02:07:37;;;;;;;8.52;5.80;;;18.60;99.90;;;;;;4208292;28;20950;-63
2021/08/10 02:09:39;;;;;;;10.45;5.97;;;18.60;99.90;;;;;;4207044;28;20181;-64
2021/08/10 02:11:41;;;;;;;12.10;5.93;;;18.60;99.90;;;;;;4209020;28;20073;-63
2021/08/10 02:13:43;;;;;;;6.85;5.40;;;18.60;99.90;;;;;;4207855;28;20430;-63
2021/08/10 02:15:46;;;;;;;12.98;6.03;;;18.60;99.90;;;;;;4208468;28;20085;-63
2021/08/10 02:17:50;;;;;;;9.43;5.55;;;18.50;99.90;;;;;;4207350;28;20116;-61
2021/08/10 02:19:51;;;;;;;7.95;6.25;;;18.50;99.90;;;;;;4208742;28;21520;-62
2021/08/10 02:22:00;;;;;;;7.32;5.88;;;18.50;99.90;;;;;;4207027;28;20497;-63
2021/08/10 02:24:09;;;;;;;12.20;6.03;;;18.50;99.90;;;;;;4208885;28;20476;-63
2021/08/10 02:26:10;;;;;;;6.82;5.88;;;18.50;99.90;;;;;;4207696;28;20032;-61
2021/08/10 02:28:14;;;;;;;8.27;6.93;;;18.50;99.90;;;;;;4208916;28;20381;-63
2021/08/10 02:30:19;;;;;;;6.82;6.10;;;18.50;99.90;;;;;;4207546;28;20032;-63
2021/08/10 02:32:22;;;;;;;9.38;6.95;;;18.50;99.90;;;;;;4208667;28;20052;-62
2021/08/10 02:34:24;;;;;;;6.32;5.72;;;18.50;99.90;;;;;;4207192;28;20089;-64
2021/08/10 02:36:29;;;;;;;9.48;6.18;;;18.50;99.90;;;;;;4208133;28;20051;-64
2021/08/10 02:38:31;;;;;;;7.97;5.88;;;18.50;99.90;;;;;;4207976;28;20036;-60
2021/08/10 02:40:34;;;;;;;6.28;5.60;;;18.50;99.90;;;;;;4207995;28;20036;-64
2021/08/10 02:42:37;;;;;;;7.43;6.00;;;18.50;99.90;;;;;;4207677;28;20081;-63
2021/08/10 02:44:41;;;;;;;10.85;5.97;;;18.50;99.90;;;;;;4207873;28;20028;-63
2021/08/10 02:46:43;;;;;;;7.10;6.32;;;18.50;99.90;;;;;;4207869;28;20116;-63
2021/08/10 02:48:44;;;;;;;8.02;5.93;;;18.40;99.90;;;;;;4207899;28;20040;-63
2021/08/10 02:50:47;;;;;;;9.32;5.55;;;18.50;99.90;;;;;;4207558;28;20024;-64
2021/08/10 02:52:48;;;;;;;10.13;6.22;;;18.40;99.90;;;;;;4207162;28;20583;-64
2021/08/10 02:54:50;;;;;;;8.25;5.55;;;18.40;99.90;;;;;;4208341;28;20032;-64
2021/08/10 02:57:00;;;;;;;12.80;5.50;;;18.40;99.90;;;;;;4207515;28;20117;-63
2021/08/10 02:59:36;;;;;;;10.32;5.70;;;18.40;99.90;;;;;;4208333;28;20096;-63
2021/08/10 03:01:42;;;;;;;8.15;5.72;;;18.40;99.90;;;;;;4203316;28;20040;-63
2021/08/10 03:03:46;;;;;;;6.35;5.70;;;18.40;99.90;;;;;;4207551;28;20053;-63
2021/08/10 03:05:52;;;;;;;9.60;6.30;;;18.40;99.90;;;;;;4205478;28;20040;-63
2021/08/10 03:07:55;;;;;;;8.88;5.65;;;18.40;99.90;;;;;;4208172;28;20434;-64
2021/08/10 03:10:00;;;;;;;14.93;6.22;;;18.40;99.90;;;;;;4207071;28;20032;-63
2021/08/10 03:12:04;;;;;;;7.22;5.22;;;18.40;99.90;;;;;;4208534;28;20482;-65
2021/08/10 03:14:09;;;;;;;10.00;5.68;;;18.40;99.90;;;;;;4206959;28;20461;-63
2021/08/10 03:16:12;;;;;;;10.15;5.97;;;18.30;99.90;;;;;;4208178;28;20053;-63
2021/08/10 03:18:15;;;;;;;8.02;6.10;;;18.30;99.90;;;;;;4206256;28;20032;-63
2021/08/10 03:20:17;;;;;;;7.78;6.00;;;18.30;99.90;;;;;;4207518;28;20105;-64
2021/08/10 03:22:20;;;;;;;9.13;5.45;;;18.30;99.90;;;;;;4206788;28;20035;-63
2021/08/10 03:24:23;;;;;;;9.60;6.03;;;18.30;99.90;;;;;;4208001;28;20036;-63
2021/08/10 03:26:27;;;;;;;6.63;5.53;;;18.40;99.90;;;;;;4206789;28;20024;-63
2021/08/10 03:28:29;;;;;;;7.10;5.05;;;18.40;99.90;;;;;;4207810;28;20137;-61
2021/08/10 03:30:31;;;;;;;9.88;5.45;;;18.40;99.90;;;;;;4206047;28;20568;-64
2021/08/10 03:32:34;;;;;;;7.95;5.85;;;18.40;99.90;;;;;;4207970;28;20020;-63
2021/08/10 03:34:36;;;;;;;7.50;5.22;;;18.40;99.90;;;;;;4206559;28;20266;-64
2021/08/10 03:36:40;;;;;;;7.30;5.55;;;18.40;99.90;;;;;;4207024;28;20040;-63
2021/08/10 03:38:42;;;;;;;8.43;4.80;;;18.40;99.90;;;;;;4206367;28;20492;-63
2021/08/10 03:40:44;;;;;;;8.35;4.97;;;18.30;99.90;;;;;;4207348;28;20028;-63
2021/08/10 03:42:45;;;;;;;9.23;5.55;;;18.30;99.90;;;;;;4206937;28;20541;-63
2021/08/10 03:44:47;;;;;;;7.40;4.80;;;18.40;99.90;;;;;;4206889;28;20840;-64
2021/08/10 03:46:49;;;;;;;7.13;5.13;;;18.50;99.90;;;;;;4207351;28;20040;-64
2021/08/10 03:48:50;;;;;;;5.93;5.00;;;18.70;99.90;;;;;;4206430;28;20028;-63
2021/08/10 03:50:54;;;;;;;6.75;5.10;;;18.80;99.90;;;;;;4207152;28;20044;-63
2021/08/10 03:52:55;;;;;;;6.85;5.18;;;19.00;99.90;;;;;;4205292;28;20040;-63
2021/08/10 03:54:58;;;;;;;6.97;5.00;;;19.20;99.90;;;;;;4206867;28;20104;-63
2021/08/10 03:57:00;;;;;;;7.05;5.07;;;19.40;99.90;;;;;;4206429;28;20016;-61
2021/08/10 03:59:02;;;;;;;64.72;22.25;;;19.60;99.90;;;;;;4199058;28;20074;-61
2021/08/10 04:01:05;;;;;;;8.75;5.10;;;19.90;99.90;;;;;;4189406;28;20078;-62
2021/08/10 04:03:09;;;;;;;10.48;5.45;;;20.20;99.90;;;;;;4190797;28;20036;-62
2021/08/10 04:05:11;;;;;;;9.60;5.35;;;20.50;99.90;;;;;;4189207;28;20086;-61
2021/08/10 04:07:13;;;;;;;10.40;5.15;;;20.70;99.90;;;;;;4189993;28;20052;-61
2021/08/10 04:09:16;;;;;;;7.32;4.63;;;21.00;99.90;;;;;;4189550;28;20032;-61
2021/08/10 04:11:18;;;;;;;8.85;4.63;;;21.10;99.90;;;;;;4187952;28;20041;-63
2021/08/10 04:13:20;;;;;;;8.35;4.32;;;21.30;99.90;;;;;;4188637;28;20843;-62
2021/08/10 04:15:22;;;;;;;10.88;5.00;;;21.40;99.90;;;;;;4189464;28;20032;-63
2021/08/10 04:17:24;;;;;;;7.88;3.95;;;21.80;99.90;;;;;;4189719;28;20055;-63
2021/08/10 04:19:29;;;;;;;9.00;4.80;;;22.00;99.90;;;;;;4189744;28;20029;-63
2021/08/10 04:21:31;;;;;;;8.07;4.30;;;22.30;99.90;;;;;;4189223;28;20024;-62
2021/08/10 04:23:32;;;;;;;6.47;4.00;;;22.30;99.90;;;;;;4188583;28;20337;-62
2021/08/10 04:25:34;;;;;;;5.95;4.13;;;22.50;99.90;;;;;;4189884;28;20036;-63
2021/08/10 04:27:35;;;;;;;10.48;4.20;;;22.70;99.90;;;;;;4189085;28;20120;-62
2021/08/10 04:29:36;;;;;;;20.90;13.60;;;22.90;99.90;;;;;;4190648;28;20048;-62
2021/08/10 04:31:37;;;;;;;9.65;5.88;;;23.00;99.90;;;;;;4188704;28;20763;-63
2021/08/10 04:33:38;;;;;;;10.82;5.13;;;23.10;99.90;;;;;;4189774;28;20122;-62
2021/08/10 04:35:39;;;;;;;10.45;4.38;;;23.20;99.90;;;;;;4188878;28;20032;-63
2021/08/10 04:37:40;;;;;;;6.90;4.82;;;23.50;99.90;;;;;;4190284;28;20110;-62
2021/08/10 04:39:41;;;;;;;6.97;4.13;;;23.80;99.90;;;;;;4186523;28;20032;-62
2021/08/10 04:41:43;;;;;;;6.93;3.60;;;23.90;99.90;;;;;;4189497;28;20024;-62
2021/08/10 04:43:44;;;;;;;6.20;3.88;;;24.40;99.90;;;;;;4189069;28;20025;-64
2021/08/10 04:45:46;;;;;;;4.13;3.60;;;24.90;99.90;;;;;;4187723;28;20095;-63
2021/08/10 04:47:47;;;;;;;9.45;4.18;;;25.10;99.90;;;;;;4183551;28;20439;-63
2021/08/10 04:49:48;;;;;;;7.85;3.58;;;25.10;99.90;;;;;;4187512;28;20029;-62
2021/08/10 04:51:51;;;;;;;6.75;3.58;;;25.00;99.90;;;;;;4187236;28;20454;-62
2021/08/10 04:53:52;;;;;;;6.93;3.88;;;24.80;99.90;;;;;;4187599;28;20049;-63
2021/08/10 04:55:53;;;;;;;5.82;4.13;;;24.50;99.90;;;;;;4187709;28;20028;-62
2021/08/10 04:57:54;;;;;;;8.07;3.55;;;24.70;99.90;;;;;;4186946;28;20567;-63
2021/08/10 04:59:55;;;;;;;8.20;3.63;;;24.60;99.90;;;;;;4188907;28;20103;-62
2021/08/10 05:01:56;;;;;;;5.22;4.13;;;24.50;99.90;;;;;;4186279;28;20113;-63
2021/08/10 05:03:57;;;;;;;10.25;3.35;;;24.40;99.90;;;;;;4188775;28;20094;-63
2021/08/10 05:05:59;;;;;;;3.95;3.33;;;24.40;99.90;;;;;;4187782;28;20036;-63
2021/08/10 05:08:00;;;;;;;7.63;3.47;;;24.20;99.90;;;;;;4188467;28;20058;-62
2021/08/10 05:10:02;;;;;;;5.40;3.40;;;24.50;99.90;;;;;;4187977;28;20385;-63
2021/08/10 05:12:04;;;;;;;5.60;3.28;;;24.80;99.90;;;;;;4189335;28;20032;-63
2021/08/10 05:14:05;;;;;;;10.32;3.63;;;24.60;99.90;;;;;;4188258;28;20036;-63
2021/08/10 05:16:06;;;;;;;3.67;3.33;;;24.40;99.90;;;;;;4189026;28;20041;-63
2021/08/10 05:18:08;;;;;;;7.43;3.80;;;24.40;99.90;;;;;;4188961;28;20021;-63
2021/08/10 05:20:10;;;;;;;3.47;3.13;;;24.80;99.90;;;;;;4189103;28;20037;-63
2021/08/10 05:22:11;;;;;;;7.05;3.42;;;25.00;99.90;;;;;;4188832;28;20036;-63
2021/08/10 05:24:12;;;;;;;5.82;3.40;;;25.30;99.90;;;;;;4188733;28;20597;-64
2021/08/10 05:26:13;;;;;;;8.20;3.78;;;25.90;99.90;;;;;;4189767;28;20178;-62
2021/08/10 05:28:15;;;;;;;5.45;2.92;;;26.40;99.90;;;;;;4188672;28;20040;-61
2021/08/10 05:30:16;;;;;;;4.47;2.78;;;26.90;99.90;;;;;;4192944;28;20032;-62
2021/08/10 05:32:17;;;;;;;4.53;3.20;;;27.30;99.90;;;;;;4191203;28;20049;-64
2021/08/10 05:34:18;;;;;;;7.15;3.65;;;27.30;99.90;;;;;;4192542;28;20074;-62
2021/08/10 05:36:20;;;;;;;8.05;3.60;;;27.40;99.90;;;;;;4191553;28;20036;-63
2021/08/10 05:38:21;;;;;;;8.20;3.25;;;27.30;99.90;;;;;;4191900;28;20049;-62
2021/08/10 05:40:22;;;;;;;6.57;3.00;;;27.50;99.90;;;;;;4191355;28;20097;-62
2021/08/10 05:42:23;;;;;;;6.18;3.15;;;27.70;99.90;;;;;;4192377;28;20029;-64
2021/08/10 05:44:24;;;;;;;7.50;3.35;;;27.80;99.90;;;;;;4191421;28;20109;-64
2021/08/10 05:46:26;;;;;;;4.30;3.40;;;27.80;99.90;;;;;;4192185;28;21467;-64
2021/08/10 05:48:27;;;;;;;9.77;3.05;;;27.90;99.70;;;;;;4191455;28;20085;-62
2021/08/10 05:50:28;;;;;;;6.57;3.50;;;28.30;99.50;;;;;;4191748;28;20055;-63
2021/08/10 05:52:30;;;;;;;5.85;4.30;;;28.50;98.70;;;;;;4191574;28;20044;-62
2021/08/10 05:54:31;;;;;;;6.88;2.90;;;28.30;98.70;;;;;;4191206;28;20052;-62
2021/08/10 05:56:32;;;;;;;7.82;3.00;;;28.40;98.70;;;;;;4191978;28;20028;-62
2021/08/10 05:58:34;;;;;;;7.65;3.28;;;28.80;98.40;;;;;;4190735;28;20044;-62
2021/08/10 06:00:35;;;;;;;4.18;3.08;;;29.60;97.90;;;;;;4192602;28;20117;-62
2021/08/10 06:02:37;;;;;;;10.93;2.83;;;30.00;97.00;;;;;;4191263;28;20040;-62
2021/08/10 06:04:38;;;;;;;7.82;2.88;;;30.20;96.50;;;;;;4192242;28;20043;-62
2021/08/10 06:06:39;;;;;;;7.38;3.03;;;30.00;96.20;;;;;;4190464;28;20078;-62
2021/08/10 06:08:40;;;;;;;8.13;3.47;;;29.70;96.30;;;;;;4192311;28;20036;-62
2021/08/10 06:10:41;;;;;;;7.32;3.47;;;29.50;96.40;;;;;;4190688;28;20810;-62
2021/08/10 06:12:43;;;;;;;5.47;2.88;;;29.50;96.60;;;;;;4191902;28;20710;-62
2021/08/10 06:14:44;;;;;;;4.50;3.00;;;29.80;96.20;;;;;;4190972;28;20044;-62
2021/08/10 06:16:45;;;;;;;4.47;3.30;;;30.00;95.90;;;;;;4191536;28;20557;-62
2021/08/10 06:18:46;;;;;;;4.13;3.17;;;30.40;95.60;;;;;;4190820;28;20025;-62
2021/08/10 06:20:47;;;;;;;3.83;3.25;;;30.70;95.40;;;;;;4191067;28;20488;-62
2021/08/10 06:22:49;;;;;;;4.65;3.00;;;31.00;94.60;;;;;;4190799;28;20078;-62
2021/08/10 06:24:50;;;;;;;4.95;3.15;;;31.50;94.30;;;;;;4190678;28;20109;-63
2021/08/10 06:26:51;;;;;;;6.03;2.83;;;31.70;93.80;;;;;;4191380;28;20086;-62
2021/08/10 06:28:53;;;;;;;6.15;2.83;;;31.60;93.60;;;;;;4190662;28;20679;-63
2021/08/10 06:30:54;;;;;;;9.90;3.42;;;31.60;93.60;;;;;;4191894;28;20450;-62
2021/08/10 06:32:56;;;;;;;5.78;3.33;;;31.60;93.50;;;;;;4189997;28;20439;-63
2021/08/10 06:34:57;;;;;;;6.32;3.10;;;31.50;93.60;;;;;;4191532;28;20075;-62
2021/08/10 06:36:58;;;;;;;5.55;2.53;;;31.50;93.70;;;;;;4190226;28;20850;-62
2021/08/10 06:38:59;;;;;;;7.28;3.03;;;31.70;93.50;;;;;;4191183;28;20385;-63
2021/08/10 06:41:01;;;;;;;4.53;3.08;;;32.00;93.30;;;;;;4189859;28;20086;-62
2021/08/10 06:43:03;;;;;;;5.28;2.75;;;32.10;93.00;;;;;;4191228;28;20555;-63
2021/08/10 06:45:04;;;;;;;6.65;2.63;;;32.40;92.90;;;;;;4189946;28;20531;-62
2021/08/10 06:47:05;;;;;;;6.07;3.10;;;32.40;92.50;;;;;;4191422;28;20434;-63
2021/08/10 06:49:06;;;;;;;5.05;3.05;;;32.40;92.40;;;;;;4190441;28;20028;-62
2021/08/10 06:51:08;;;;;;;5.32;3.05;;;31.80;92.50;;;;;;4190560;28;20036;-62
2021/08/10 06:53:09;;;;;;;8.10;3.00;;;31.40;93.20;;;;;;4190843;28;20098;-62
2021/08/10 06:55:10;;;;;;;10.07;3.30;;;30.70;93.60;;;;;;4188222;28;20075;-62
2021/08/10 06:57:11;;;;;;;5.03;3.13;;;29.90;94.40;;;;;;4190623;28;20490;-63
2021/08/10 06:59:12;;;;;;;7.30;3.28;;;29.50;95.20;;;;;;4189489;28;20495;-62
2021/08/10 07:01:14;;;;;;;7.88;3.50;;;29.40;95.70;;;;;;4190977;28;20040;-63
2021/08/10 07:03:15;;;;;;;5.63;3.78;;;29.80;95.50;;;;;;4189635;28;20541;-62
2021/08/10 07:05:16;;;;;;;8.20;3.95;;;30.10;95.20;;;;;;4191040;28;20032;-62
2021/08/10 07:07:17;;;;;;;6.97;3.70;;;30.10;95.20;;;;;;4189628;28;20098;-63
2021/08/10 07:09:18;;;;;;;5.05;2.85;;;29.90;95.60;;;;;;4190746;28;20109;-62
2021/08/10 07:11:20;;;;;;;5.50;3.65;;;29.90;95.80;;;;;;4189601;28;20041;-63
2021/08/10 07:13:21;;;;;;;5.35;3.50;;;29.80;95.80;;;;;;4191020;28;20036;-62
2021/08/10 07:15:22;;;;;;;4.32;3.70;;;29.90;96.20;;;;;;4190055;28;20125;-64
2021/08/10 07:17:24;;;;;;;4.55;3.45;;;30.10;96.10;;;;;;4190925;28;20353;-63
2021/08/10 07:19:25;;;;;;;7.13;3.45;;;30.50;95.90;;;;;;4189718;28;20086;-63
2021/08/10 07:21:26;;;;;;;4.93;3.55;;;30.80;95.60;;;;;;4189766;28;20553;-62
2021/08/10 07:23:27;;;;;;;9.15;4.10;;;31.10;95.40;;;;;;4189565;28;20330;-63
2021/08/10 07:25:28;;;;;;;3.90;3.50;;;31.20;95.30;;;;;;4190059;28;20154;-62
2021/08/10 07:27:29;;;;;;;10.20;3.90;;;30.90;95.30;;;;;;4190250;28;20078;-62
2021/08/10 07:29:31;;;;;;;5.80;3.15;;;30.80;95.40;;;;;;4189827;28;20048;-62
2021/08/10 07:31:32;;;;;;;3.38;3.00;;;30.90;95.30;;;;;;4190047;28;20377;-62
2021/08/10 07:33:33;;;;;;;3.70;3.13;;;31.10;95.20;;;;;;4189384;28;20420;-62
2021/08/10 07:35:34;;;;;;;8.15;3.38;;;31.30;95.00;;;;;;4190274;28;20033;-62
2021/08/10 07:37:40;;;;;;;5.78;3.28;;;31.50;94.80;;;;;;4189126;28;20048;-62
2021/08/10 07:39:41;;;;;;;8.73;4.03;;;31.80;94.00;;;;;;4190783;28;20105;-62
2021/08/10 07:41:43;;;;;;;5.78;3.42;;;31.80;94.20;;;;;;4188865;28;20137;-63
2021/08/10 07:43:44;;;;;;;6.68;3.33;;;31.90;94.10;;;;;;4190363;28;20074;-62
2021/08/10 07:45:45;;;;;;;5.00;3.10;;;31.70;94.10;;;;;;4189092;28;20037;-63
2021/08/10 07:47:46;;;;;;;5.57;2.80;;;31.50;94.10;;;;;;4190484;28;20093;-62
2021/08/10 07:49:47;;;;;;;7.57;3.70;;;31.40;94.50;;;;;;4188946;28;20081;-62
2021/08/10 07:51:49;;;;;;;5.68;3.47;;;31.50;94.60;;;;;;4189846;28;20036;-62
2021/08/10 07:53:50;;;;;;;3.50;3.20;;;31.60;94.60;;;;;;4189761;28;20121;-63
2021/08/10 07:55:51;;;;;;;3.63;3.33;;;31.60;94.50;;;;;;4189566;28;20783;-62
2021/08/10 07:57:52;;;;;;;5.88;3.20;;;31.70;94.60;;;;;;4189371;28;20032;-62
2021/08/10 07:59:54;;;;;;;4.35;3.17;;;31.70;94.40;;;;;;4189127;28;20040;-63
2021/08/10 08:01:55;;;;;;;5.82;4.50;;;31.70;94.20;;;;;;4189377;28;20106;-63
2021/08/10 08:03:56;;;;;;;4.32;3.92;;;31.80;94.10;;;;;;4188619;28;20070;-62
2021/08/10 08:05:57;;;;;;;5.03;3.10;;;31.40;94.20;;;;;;4190500;28;20110;-62
2021/08/10 08:07:59;;;;;;;5.95;2.83;;;30.90;94.70;;;;;;4188833;28;20032;-62
2021/08/10 08:10:01;;;;;;;3.22;2.92;;;30.80;95.00;;;;;;4189720;28;20028;-63
2021/08/10 08:12:02;;;;;;;3.42;2.92;;;30.50;94.80;;;;;;4188801;28;20044;-62
2021/08/10 08:14:03;;;;;;;3.88;2.95;;;30.40;94.40;;;;;;4189650;28;20561;-63
2021/08/10 08:16:05;;;;;;;4.50;3.03;;;30.60;94.20;;;;;;4189047;28;20036;-63
2021/08/10 08:18:06;;;;;;;3.83;3.42;;;30.40;94.20;;;;;;4190121;28;20377;-63
2021/08/10 08:20:08;;;;;;;5.18;3.30;;;30.30;94.50;;;;;;4188824;28;20048;-63
2021/08/10 08:22:09;;;;;;;4.80;3.63;;;30.50;94.30;;;;;;4189925;28;20431;-63
2021/08/10 08:24:10;;;;;;;7.07;3.88;;;30.90;94.20;;;;;;4189329;28;20028;-63
2021/08/10 08:26:11;;;;;;;10.90;4.32;;;31.20;93.80;;;;;;4189519;28;20055;-63
2021/08/10 08:28:13;;;;;;;4.30;2.72;;;30.70;93.80;;;;;;4189392;28;20459;-63
2021/08/10 08:30:15;;;;;;;7.13;2.47;;;30.60;93.70;;;;;;4189283;28;20029;-63
2021/08/10 08:32:16;;;;;;;3.35;3.00;;;30.40;93.70;;;;;;4189300;28;20117;-63
2021/08/10 08:34:17;;;;;;;5.20;3.03;;;30.00;93.60;;;;;;4188844;28;20045;-63
2021/08/10 08:36:18;;;;;;;7.00;2.88;;;30.10;93.70;;;;;;4189742;28;20461;-63
2021/08/10 08:38:20;;;;;;;8.80;2.70;;;30.00;93.80;;;;;;4187959;28;20444;-63
2021/08/10 08:40:24;;;;;;;6.38;3.38;;;29.50;94.00;;;;;;4189656;28;20460;-63
2021/08/10 08:42:25;;;;;;;5.22;3.50;;;29.30;94.40;;;;;;4187266;28;20051;-63
2021/08/10 08:44:34;;;;;;;4.40;2.85;;;29.20;94.20;;;;;;4190258;28;20045;-63
2021/08/10 08:46:37;;;;;;;2.53;2.28;;;29.00;94.20;;;;;;4188776;28;20032;-63
2021/08/10 08:48:41;;;;;;;3.10;2.17;;;29.10;94.30;;;;;;4189728;28;20097;-63
2021/08/10 08:50:44;;;;;;;3.92;2.60;;;29.40;93.90;;;;;;4188009;28;20064;-63
2021/08/10 08:52:54;;;;;;;7.07;3.17;;;29.70;93.70;;;;;;4189568;28;20085;-63
2021/08/10 08:54:56;;;;;;;7.82;2.50;;;29.80;92.90;;;;;;4188247;28;20467;-62
2021/08/10 08:56:58;;;;;;;7.80;3.03;;;29.70;92.80;;;;;;4189451;28;20098;-63
2021/08/10 08:58:59;;;;;;;2.80;2.17;;;29.70;92.40;;;;;;4187762;28;20603;-63
2021/08/10 09:01:00;;;;;;;7.97;2.42;;;29.60;92.20;;;;;;4189773;28;20037;-63
2021/08/10 09:03:01;;;;;;;8.93;2.65;;;29.80;92.30;;;;;;4188515;28;20036;-63
2021/08/10 09:05:03;;;;;;;6.88;2.42;;;29.50;91.70;;;;;;4192321;28;20036;-64
2021/08/10 09:07:04;;;;;;;15.73;2.95;;;29.20;91.10;;;;;;4191907;28;20024;-63
2021/08/10 09:09:21;;;;;;;4.22;2.40;;;28.90;91.40;;;;;;4191280;28;20582;-63
2021/08/10 09:11:24;;;;;;;6.63;2.00;;;29.00;91.30;;;;;;4192597;28;20032;-63
2021/08/10 09:13:25;;;;;;;4.60;2.05;;;29.20;91.10;;;;;;4192230;28;20070;-63
2021/08/10 09:15:37;;;;;;;6.32;2.33;;;29.40;91.20;;;;;;4192606;28;20068;-63
2021/08/10 09:17:47;;;;;;;6.75;3.08;;;29.60;90.80;;;;;;4191139;28;20040;-63
2021/08/10 09:19:55;;;;;;;5.45;2.45;;;29.60;91.20;;;;;;4192021;28;20125;-64
2021/08/10 09:22:18;;;;;;;6.05;2.20;;;29.80;91.50;;;;;;4191350;28;20090;-63
2021/08/10 09:24:19;;;;;;;14.88;2.92;;;30.10;91.20;;;;;;4191883;28;20034;-63
2021/08/10 09:26:40;;;;;;;9.57;3.20;;;29.80;90.80;;;;;;4191462;28;20530;-63
2021/08/10 09:28:41;;;;;;;4.00;2.00;;;29.50;89.80;;;;;;4192012;28;20029;-62
2021/08/10 09:30:42;;;;;;;6.00;2.67;;;29.00;90.50;;;;;;4191637;28;20446;-63
2021/08/10 09:32:52;;;;;;;4.28;2.78;;;28.60;90.80;;;;;;4192354;28;20020;-62
2021/08/10 09:35:13;;;;;;;2.25;2.03;;;28.80;90.50;;;;;;4191153;28;20081;-63
2021/08/10 09:37:15;;;;;;;6.45;2.45;;;28.50;90.30;;;;;;4191920;28;20036;-62
2021/08/10 09:39:30;;;;;;;2.13;1.58;;;28.30;90.50;;;;;;4191188;28;20013;-63
2021/08/10 09:41:32;;;;;;;4.30;2.10;;;28.40;89.70;;;;;;4191535;28;20490;-63
2021/08/10 09:43:35;;;;;;;3.10;2.00;;;28.50;90.30;;;;;;4190388;28;20033;-63
2021/08/10 09:45:36;;;;;;;2.42;1.67;;;28.60;89.30;;;;;;4192173;28;20041;-63
2021/08/10 09:47:41;;;;;;;2.42;1.90;;;28.50;88.30;;;;;;4190618;28;20040;-62
2021/08/10 09:49:44;;;;;;;5.47;2.30;;;28.50;89.50;;;;;;4191617;28;20029;-63
2021/08/10 09:51:48;;;;;;;2.70;2.05;;;28.70;89.30;;;;;;4190215;28;20059;-62
2021/08/10 09:53:58;;;;;;;3.10;2.45;;;29.00;89.00;;;;;;4191667;28;20048;-63
2021/08/10 09:55:59;;;;;;;4.60;1.63;;;29.10;88.40;;;;;;4190389;28;20048;-63
2021/08/10 09:58:03;;;;;;;5.70;1.70;;;29.00;87.10;;;;;;4191800;28;20028;-63
2021/08/10 10:00:04;;;;;;;1.88;1.65;;;29.00;86.40;;;;;;4190935;28;20495;-63
2021/08/10 10:02:20;;;;;;;2.70;1.52;;;28.90;86.50;;;;;;4192355;28;20029;-62
2021/08/10 10:04:31;;;;;;;4.07;1.70;;;29.10;85.70;;;;;;4190945;28;20036;-63
2021/08/10 10:06:32;;;;;;;3.08;1.65;;;29.20;84.80;;;;;;4191810;28;20086;-63
2021/08/10 10:08:34;;;;;;;3.72;1.90;;;29.30;85.40;;;;;;4190010;28;20086;-63
2021/08/10 10:10:35;;;;;;;2.63;1.58;;;29.30;85.30;;;;;;4191499;28;20036;-63
2021/08/10 10:12:39;;;;;;;2.85;1.73;;;29.30;85.60;;;;;;4189819;28;20484;-63
2021/08/10 10:14:41;;;;;;;2.28;2.08;;;29.20;86.20;;;;;;4191337;28;20048;-62
2021/08/10 10:16:48;;;;;;;4.88;2.10;;;29.10;86.90;;;;;;4191549;28;20036;-63
2021/08/10 10:18:53;;;;;;;1.80;1.48;;;29.00;87.70;;;;;;4192194;28;20025;-62
2021/08/10 10:20:54;;;;;;;2.78;1.88;;;29.10;88.20;;;;;;4190319;28;20160;-62
2021/08/10 10:22:55;;;;;;;4.72;2.20;;;29.20;88.40;;;;;;4191454;28;20106;-63
2021/08/10 10:24:59;;;;;;;2.38;1.70;;;29.40;88.50;;;;;;4191011;28;20036;-63
2021/08/10 10:27:05;;;;;;;2.08;1.70;;;29.50;88.20;;;;;;4190731;28;20087;-63
2021/08/10 10:29:08;;;;;;;1.77;1.50;;;29.60;87.50;;;;;;4191219;28;20044;-62
2021/08/10 10:31:09;;;;;;;2.95;1.73;;;29.60;87.10;;;;;;4191011;28;20510;-63
2021/08/10 10:33:13;;;;;;;4.63;1.77;;;29.40;86.40;;;;;;4191003;28;20431;-63
2021/08/10 10:35:17;;;;;;;4.07;2.35;;;29.30;86.10;;;;;;4190104;28;20052;-63
2021/08/10 10:37:27;;;;;;;3.20;1.90;;;29.20;86.80;;;;;;4191374;28;20071;-63
2021/08/10 10:39:34;;;;;;;5.10;1.77;;;29.10;87.50;;;;;;4190083;28;20037;-63